createdAt,value
2018-03-30T00:11:08.960Z,94870.52
2018-03-30T00:13:35.336Z,94866.02
2018-03-30T00:16:01.701Z,94884.30
2018-03-30T00:18:28.241Z,94878.62
2018-03-30T00:31:35.824Z,94865.12
2018-03-30T00:34:02.245Z,94867.46
2018-03-30T00:36:29.060Z,94874.12
2018-03-30T00:38:55.931Z,94873.53
2018-03-30T00:41:22.355Z,94886.28
2018-03-30T00:43:48.717Z,94879.81
2018-03-30T00:46:15.067Z,94888.27
2018-03-30T00:48:42.183Z,94887.67
2018-03-30T00:51:08.925Z,94863.37
2018-03-30T00:53:35.249Z,94880.01
2018-03-30T00:56:01.649Z,94866.92
2018-03-30T00:58:28.401Z,94877.44
2018-03-30T01:00:54.986Z,94890.84
2018-03-30T01:03:21.387Z,94876.23
2018-03-30T01:05:47.755Z,94896.39
2018-03-30T01:08:14.100Z,94895.27
2018-03-30T01:10:40.488Z,94888.37
2018-03-30T01:13:06.823Z,94878.09
2018-03-30T01:15:33.193Z,94895.14
2018-03-30T01:17:59.523Z,94878.11
2018-03-30T01:20:25.955Z,94889.58
2018-03-30T01:22:52.309Z,94885.59
2018-03-30T01:25:18.637Z,94891.60
2018-03-30T01:27:44.975Z,94898.80
2018-03-30T01:30:11.324Z,94897.23
2018-03-30T01:32:37.723Z,94898.11
2018-03-30T01:35:04.055Z,94906.23
2018-03-30T01:37:30.413Z,94908.62
2018-03-30T01:39:57.470Z,94896.88
2018-03-30T01:42:24.023Z,94908.16
2018-03-30T01:44:50.383Z,94912.25
2018-03-30T01:47:16.768Z,94922.30
2018-03-30T01:52:21.580Z,94911.48
2018-03-30T01:54:47.902Z,94914.55
2018-03-30T01:57:14.293Z,94916.02
2018-03-30T01:59:40.683Z,94916.56
2018-03-30T02:02:07.079Z,94913.27
2018-03-30T02:04:33.490Z,94909.05
2018-03-30T02:06:59.812Z,94907.34
2018-03-30T02:09:26.311Z,94908.22
2018-03-30T02:11:52.651Z,94899.04
2018-03-30T02:14:19.017Z,94894.89
2018-03-30T02:16:45.493Z,94906.78
2018-03-30T02:19:12.413Z,94912.98
2018-03-30T02:24:11.238Z,94914.78
2018-03-30T02:26:37.791Z,94923.88
2018-03-30T02:29:04.209Z,94920.75
2018-03-30T02:31:30.531Z,94926.63
2018-03-30T02:33:56.910Z,94935.47
2018-03-30T02:36:23.243Z,94925.30
2018-03-30T02:38:49.596Z,94926.71
2018-03-30T02:41:15.995Z,94941.99
2018-03-30T02:43:42.367Z,94943.28
2018-03-30T02:46:09.038Z,94950.55
2018-03-30T02:48:35.471Z,94952.97
2018-03-30T02:51:01.807Z,94941.25
2018-03-30T02:53:28.350Z,94954.58
2018-03-30T02:55:54.874Z,94966.19
2018-03-30T02:58:21.268Z,94962.74
2018-03-30T03:00:47.688Z,94968.30
2018-03-30T03:03:14.754Z,94977.88
2018-03-30T03:05:41.660Z,94971.52
2018-03-30T03:08:08.072Z,94964.03
2018-03-30T03:10:34.875Z,94965.27
2018-03-30T03:13:01.265Z,94983.17
2018-03-30T03:15:27.746Z,94973.95
2018-03-30T03:17:54.142Z,94978.97
2018-03-30T03:20:20.873Z,94978.68
2018-03-30T03:22:47.580Z,94984.24
2018-03-30T03:25:14.038Z,94992.55
2018-03-30T03:27:40.457Z,94999.22
2018-03-30T03:30:06.791Z,94993.80
2018-03-30T03:32:33.475Z,94980.39
2018-03-30T03:34:59.896Z,94985.25
2018-03-30T03:37:26.800Z,94991.64
2018-03-30T03:39:53.516Z,94999.36
2018-03-30T03:42:19.855Z,94994.72
2018-03-30T03:44:46.175Z,94995.88
2018-03-30T03:47:12.499Z,95003.59
2018-03-30T03:49:38.833Z,95018.15
2018-03-30T03:52:05.218Z,95020.53
2018-03-30T03:54:31.584Z,95010.70
2018-03-30T03:56:57.899Z,95007.25
2018-03-30T03:59:24.269Z,95014.60
2018-03-30T04:01:50.640Z,95012.91
2018-03-30T04:04:17.000Z,95013.23
2018-03-30T04:06:43.336Z,95021.48
2018-03-30T04:09:09.825Z,95024.09
2018-03-30T04:11:36.461Z,95016.98
2018-03-30T04:14:02.805Z,95012.16
2018-03-30T04:16:29.168Z,95023.80
2018-03-30T04:18:55.590Z,95012.17
2018-03-30T04:21:21.965Z,95023.30
2018-03-30T04:23:48.522Z,95017.47
2018-03-30T04:26:14.906Z,95007.45
2018-03-30T04:28:41.318Z,95021.97
2018-03-30T04:31:07.686Z,95022.36
2018-03-30T04:33:34.106Z,95013.61
2018-03-30T04:36:00.460Z,95024.27
2018-03-30T04:38:26.846Z,95035.74
2018-03-30T04:40:53.210Z,95020.06
2018-03-30T04:43:19.627Z,95034.27
2018-03-30T04:45:45.996Z,95033.02
2018-03-30T04:48:12.371Z,95036.39
2018-03-30T04:50:38.694Z,95038.38
2018-03-30T04:53:05.100Z,95040.67
2018-03-30T04:55:31.458Z,95036.11
2018-03-30T04:57:57.926Z,95042.67
2018-03-30T05:00:24.255Z,95038.03
2018-03-30T05:02:50.692Z,95038.97
2018-03-30T05:05:17.062Z,95038.14
2018-03-30T05:07:43.418Z,95039.75
2018-03-30T05:10:09.792Z,95040.39
2018-03-30T05:12:36.118Z,95051.97
2018-03-30T05:15:02.459Z,95063.03
2018-03-30T05:17:28.814Z,95069.06
2018-03-30T05:19:55.253Z,95074.48
2018-03-30T05:22:21.580Z,95072.69
2018-03-30T05:24:48.020Z,95076.59
2018-03-30T05:27:14.374Z,95079.42
2018-03-30T05:29:40.849Z,95071.44
2018-03-30T05:32:07.250Z,95072.39
2018-03-30T05:34:33.610Z,95093.18
2018-03-30T05:36:59.962Z,95093.73
2018-03-30T05:39:26.330Z,95098.07
2018-03-30T05:41:52.706Z,95095.38
2018-03-30T05:44:19.080Z,95101.20
2018-03-30T05:46:45.528Z,95106.97
2018-03-30T05:49:11.862Z,95099.66
2018-03-30T05:51:38.297Z,95091.48
2018-03-30T05:54:04.666Z,95096.89
2018-03-30T05:56:31.012Z,95103.61
2018-03-30T05:58:57.503Z,95107.54
2018-03-30T06:01:23.877Z,95100.12
2018-03-30T06:03:50.199Z,95110.94
2018-03-30T06:06:16.747Z,95113.00
2018-03-30T06:08:43.091Z,95103.70
2018-03-30T06:11:09.482Z,95106.89
2018-03-30T06:13:35.911Z,95110.88
2018-03-30T06:16:02.303Z,95107.94
2018-03-30T06:18:28.745Z,95104.42
2018-03-30T06:20:55.224Z,95110.80
2018-03-30T06:23:21.548Z,95112.09
2018-03-30T06:25:47.926Z,95113.63
2018-03-30T06:28:14.286Z,95105.00
2018-03-30T06:30:40.691Z,95093.17
2018-03-30T06:33:07.178Z,95103.86
2018-03-30T06:35:33.560Z,95108.09
2018-03-30T06:37:59.975Z,95115.70
2018-03-30T06:40:26.548Z,95114.35
2018-03-30T06:42:52.917Z,95110.00
2018-03-30T06:45:19.357Z,95109.88
2018-03-30T06:47:45.759Z,95116.30
2018-03-30T06:50:12.657Z,95115.66
2018-03-30T06:52:39.220Z,95112.00
2018-03-30T06:55:05.618Z,95100.72
2018-03-30T06:57:31.976Z,95116.17
2018-03-30T06:59:58.307Z,95106.30
2018-03-30T07:02:24.751Z,95114.39
2018-03-30T07:04:51.328Z,95116.23
2018-03-30T07:07:18.291Z,95123.12
2018-03-30T07:09:44.686Z,95120.53
2018-03-30T07:12:11.261Z,95116.50
2018-03-30T07:14:38.310Z,95129.57
2018-03-30T07:17:04.883Z,95125.81
2018-03-30T07:19:31.271Z,95138.37
2018-03-30T07:21:58.099Z,95128.59
2018-03-30T07:24:24.842Z,95134.72
2018-03-30T07:26:51.670Z,95115.41
2018-03-30T07:29:18.189Z,95141.80
2018-03-30T07:31:44.563Z,95142.98
2018-03-30T07:34:11.015Z,95134.20
2018-03-30T07:36:37.683Z,95148.08
2018-03-30T07:39:04.235Z,95138.34
2018-03-30T07:41:30.651Z,95133.46
2018-03-30T07:43:57.115Z,95135.49
2018-03-30T07:46:23.558Z,95123.56
2018-03-30T07:48:49.917Z,95138.43
2018-03-30T07:51:16.345Z,95130.95
2018-03-30T07:53:42.726Z,95129.94
2018-03-30T07:56:09.129Z,95131.05
2018-03-30T07:58:35.528Z,95127.66
2018-03-30T08:01:02.578Z,95126.76
2018-03-30T08:03:29.081Z,95122.03
2018-03-30T08:05:56.650Z,95123.42
2018-03-30T08:08:24.226Z,95126.11
2018-03-30T08:10:50.987Z,95114.84
2018-03-30T08:13:17.671Z,95117.06
2018-03-30T08:15:44.160Z,95123.53
2018-03-30T08:18:10.612Z,95113.58
2018-03-30T08:20:37.281Z,95123.34
2018-03-30T08:23:03.948Z,95114.34
2018-03-30T08:25:30.570Z,95117.09
2018-03-30T08:27:57.135Z,95113.08
2018-03-30T08:30:23.523Z,95110.00
2018-03-30T08:32:50.085Z,95122.78
2018-03-30T08:35:16.498Z,95113.16
2018-03-30T08:37:44.401Z,95122.59
2018-03-30T08:40:15.269Z,95105.73
2018-03-30T08:42:41.830Z,95127.55
2018-03-30T08:45:08.284Z,95115.95
2018-03-30T08:47:35.084Z,95116.06
2018-03-30T08:50:01.542Z,95111.36
2018-03-30T08:52:28.313Z,95104.89
2018-03-30T08:54:55.043Z,95092.58
2018-03-30T08:57:21.615Z,95099.48
2018-03-30T08:59:48.285Z,95094.52
2018-03-30T09:02:15.177Z,95082.23
2018-03-30T09:04:41.613Z,95093.75
2018-03-30T09:07:07.970Z,95081.89
2018-03-30T09:09:34.506Z,95091.47
2018-03-30T09:12:00.896Z,95082.56
2018-03-30T09:14:27.642Z,95075.06
2018-03-30T09:16:54.106Z,95075.36
2018-03-30T09:19:20.573Z,95080.32
2018-03-30T09:21:46.968Z,95080.30
2018-03-30T09:24:13.392Z,95074.98
2018-03-30T09:26:40.107Z,95072.06
2018-03-30T09:29:06.957Z,95068.81
2018-03-30T09:34:05.096Z,95073.42
2018-03-30T09:36:31.649Z,95065.34
2018-03-30T09:38:58.191Z,95063.23
2018-03-30T09:41:24.986Z,95063.58
2018-03-30T09:43:51.789Z,95060.44
2018-03-30T09:46:18.307Z,95053.89
2018-03-30T09:48:44.765Z,95056.64
2018-03-30T09:51:11.492Z,95038.87
2018-03-30T09:53:38.062Z,95038.92
2018-03-30T09:56:04.760Z,95041.38
2018-03-30T09:58:31.870Z,95037.95
2018-03-30T10:01:07.760Z,95032.89
2018-03-30T10:03:34.849Z,95042.76
2018-03-30T10:08:34.986Z,95025.84
2018-03-30T10:11:02.156Z,95026.94
2018-03-30T10:13:29.178Z,95012.73
2018-03-30T10:15:56.042Z,95006.80
2018-03-30T10:18:26.477Z,95023.43
2018-03-30T10:20:53.301Z,95014.30
2018-03-30T10:23:19.954Z,95018.20
2018-03-30T10:25:46.742Z,95018.66
2018-03-30T10:28:13.452Z,95027.05
2018-03-30T10:30:40.724Z,95023.02
2018-03-30T10:33:07.741Z,95014.67
2018-03-30T10:35:34.686Z,94998.67
2018-03-30T10:38:01.146Z,95003.84
2018-03-30T10:40:28.436Z,95008.19
2018-03-30T10:42:55.561Z,94996.97
2018-03-30T10:45:22.350Z,94997.64
2018-03-30T10:47:49.518Z,94990.16
2018-03-30T10:50:16.741Z,94990.23
2018-03-30T10:52:49.331Z,94985.33
2018-03-30T10:55:16.272Z,94985.12
2018-03-30T10:57:43.305Z,94970.28
2018-03-30T11:00:10.129Z,94961.97
2018-03-30T11:02:37.137Z,94965.77
2018-03-30T11:05:07.953Z,94964.09
2018-03-30T11:07:34.971Z,94955.44
2018-03-30T11:10:02.346Z,94951.41
2018-03-30T11:12:28.872Z,94953.58
2018-03-30T11:14:55.601Z,94950.72
2018-03-30T11:17:22.606Z,94939.92
2018-03-30T11:22:29.344Z,94943.45
2018-03-30T11:24:56.181Z,94943.94
2018-03-30T11:27:26.604Z,94944.69
2018-03-30T11:29:53.078Z,94938.81
2018-03-30T11:32:20.306Z,94936.38
2018-03-30T11:34:46.972Z,94934.73
2018-03-30T11:37:14.043Z,94929.63
2018-03-30T11:39:41.369Z,94928.68
2018-03-30T11:42:08.347Z,94926.56
2018-03-30T11:44:35.501Z,94902.60
2018-03-30T11:47:02.639Z,94910.50
2018-03-30T11:49:34.513Z,94908.27
2018-03-30T11:52:01.544Z,94914.19
2018-03-30T11:54:28.741Z,94899.52
2018-03-30T11:56:55.669Z,94922.23
2018-03-30T11:59:22.420Z,94918.06
2018-03-30T12:01:49.325Z,94906.36
2018-03-30T12:04:16.308Z,94903.71
2018-03-30T12:06:43.244Z,94890.04
2018-03-30T12:09:10.263Z,94888.73
2018-03-30T12:11:36.827Z,94893.48
2018-03-30T12:14:03.484Z,94885.28
2018-03-30T12:16:30.317Z,94891.94
2018-03-30T12:18:57.108Z,94872.00
2018-03-30T12:21:23.668Z,94876.83
2018-03-30T12:23:51.005Z,94875.54
2018-03-30T12:26:18.182Z,94867.64
2018-03-30T12:28:45.000Z,94877.89
2018-03-30T12:31:11.478Z,94873.91
2018-03-30T12:33:37.853Z,94861.51
2018-03-30T12:36:04.457Z,94861.63
2018-03-30T12:38:30.926Z,94860.31
2018-03-30T12:40:57.997Z,94854.36
2018-03-30T12:43:24.535Z,94855.71
2018-03-30T12:45:51.914Z,94862.77
2018-03-30T12:48:18.407Z,94850.86
2018-03-30T12:50:45.433Z,94845.30
2018-03-30T12:53:12.580Z,94846.93
2018-03-30T12:55:44.460Z,94840.14
2018-03-30T12:58:11.430Z,94839.70
2018-03-30T13:00:39.526Z,94841.50
2018-03-30T13:03:06.354Z,94839.36
2018-03-30T13:05:32.864Z,94833.71
2018-03-30T13:07:59.701Z,94825.82
2018-03-30T13:10:26.967Z,94821.27
2018-03-30T13:12:53.650Z,94815.16
2018-03-30T13:15:20.589Z,94820.93
2018-03-30T13:17:47.477Z,94812.70
2018-03-30T13:20:14.503Z,94813.36
2018-03-30T13:22:41.582Z,94799.22
2018-03-30T13:25:08.192Z,94812.16
2018-03-30T13:27:35.169Z,94800.62
2018-03-30T13:30:02.088Z,94799.73
2018-03-30T13:32:29.301Z,94808.70
2018-03-30T13:34:55.867Z,94805.52
2018-03-30T13:37:22.223Z,94796.93
2018-03-30T13:39:48.798Z,94804.25
2018-03-30T13:42:15.527Z,94799.86
2018-03-30T13:44:41.921Z,94789.20
2018-03-30T13:47:08.497Z,94790.02
2018-03-30T13:49:35.101Z,94789.08
2018-03-30T13:52:01.459Z,94779.20
2018-03-30T13:54:28.242Z,94781.66
2018-03-30T13:56:54.849Z,94777.63
2018-03-30T13:59:21.368Z,94778.50
2018-03-30T14:01:47.914Z,94774.27
2018-03-30T14:04:14.500Z,94779.82
2018-03-30T14:06:41.238Z,94779.67
2018-03-30T14:09:08.691Z,94773.77
2018-03-30T14:11:35.139Z,94776.45
2018-03-30T14:14:01.678Z,94779.98
2018-03-30T14:16:28.239Z,94777.59
2018-03-30T14:18:55.006Z,94764.78
2018-03-30T14:21:22.064Z,94771.05
2018-03-30T14:23:48.487Z,94771.46
2018-03-30T14:26:15.292Z,94770.61
2018-03-30T14:28:41.801Z,94765.73
2018-03-30T14:31:08.378Z,94772.47
2018-03-30T14:33:34.886Z,94761.94
2018-03-30T14:36:01.647Z,94768.25
2018-03-30T14:38:28.250Z,94754.63
2018-03-30T14:40:54.726Z,94768.41
2018-03-30T14:43:21.254Z,94771.78
2018-03-30T14:45:47.684Z,94780.59
2018-03-30T14:48:14.071Z,94778.69
2018-03-30T14:50:40.489Z,94781.69
2018-03-30T14:53:07.026Z,94783.64
2018-03-30T14:55:33.751Z,94782.23
2018-03-30T14:58:00.974Z,94788.47
2018-03-30T15:00:27.504Z,94783.92
2018-03-30T15:02:53.984Z,94787.30
2018-03-30T15:05:20.393Z,94772.45
2018-03-30T15:07:46.962Z,94786.10
2018-03-30T15:10:13.303Z,94780.39
2018-03-30T15:12:39.779Z,94770.90
2018-03-30T15:15:06.142Z,94775.91
2018-03-30T15:17:32.470Z,94787.31
2018-03-30T15:19:58.893Z,94770.61
2018-03-30T15:22:25.909Z,94766.70
2018-03-30T15:24:52.338Z,94770.43
2018-03-30T15:27:18.680Z,94765.00
2018-03-30T15:29:45.106Z,94764.34
2018-03-30T15:32:11.511Z,94771.72
2018-03-30T15:34:37.853Z,94775.61
2018-03-30T15:37:04.252Z,94781.13
2018-03-30T15:39:30.600Z,94777.24
2018-03-30T15:41:56.939Z,94779.52
2018-03-30T15:44:23.297Z,94780.47
2018-03-30T15:46:50.063Z,94771.63
2018-03-30T15:49:16.508Z,94774.47
2018-03-30T15:51:42.975Z,94780.91
2018-03-30T15:54:09.328Z,94782.80
2018-03-30T15:56:35.646Z,94771.25
2018-03-30T15:59:02.022Z,94767.99
2018-03-30T16:01:28.383Z,94777.71
2018-03-30T16:03:54.806Z,94777.45
2018-03-30T16:06:21.194Z,94768.27
2018-03-30T16:08:47.584Z,94765.34
2018-03-30T16:11:13.987Z,94775.15
2018-03-30T16:13:40.319Z,94774.20
2018-03-30T16:16:06.691Z,94779.02
2018-03-30T16:18:33.022Z,94776.52
2018-03-30T16:20:59.351Z,94776.98
2018-03-30T16:23:25.877Z,94776.25
2018-03-30T16:25:52.238Z,94785.31
2018-03-30T16:28:18.561Z,94772.09
2018-03-30T16:30:44.931Z,94764.34
2018-03-30T16:33:11.246Z,94771.62
2018-03-30T16:35:37.641Z,94767.33
2018-03-30T16:38:03.969Z,94770.60
2018-03-30T16:40:30.331Z,94780.73
2018-03-30T16:42:56.771Z,94773.25
2018-03-30T16:45:23.119Z,94777.47
2018-03-30T16:47:49.493Z,94773.74
2018-03-30T16:50:15.845Z,94778.30
2018-03-30T16:52:42.210Z,94775.86
2018-03-30T16:55:08.548Z,94789.80
2018-03-30T16:57:34.903Z,94774.77
2018-03-30T17:00:01.277Z,94790.12
2018-03-30T17:02:27.932Z,94783.13
2018-03-30T17:04:54.371Z,94791.36
2018-03-30T17:07:20.752Z,94800.48
2018-03-30T17:09:47.254Z,94809.46
2018-03-30T17:12:13.563Z,94798.70
2018-03-30T17:14:40.012Z,94812.19
2018-03-30T17:17:06.456Z,94804.67
2018-03-30T17:19:32.814Z,94811.20
2018-03-30T17:21:59.209Z,94807.88
2018-03-30T17:24:25.658Z,94816.70
2018-03-30T17:26:52.011Z,94807.94
2018-03-30T17:29:18.390Z,94812.69
2018-03-30T17:31:44.718Z,94809.19
2018-03-30T17:34:11.288Z,94821.19
2018-03-30T17:36:37.770Z,94821.70
2018-03-30T17:39:04.086Z,94823.31
2018-03-30T17:41:30.409Z,94819.71
2018-03-30T17:43:56.731Z,94829.91
2018-03-30T17:46:23.144Z,94841.38
2018-03-30T17:48:49.502Z,94843.83
2018-03-30T17:51:15.931Z,94845.33
2018-03-30T17:53:42.287Z,94853.73
2018-03-30T17:56:08.673Z,94847.24
2018-03-30T17:58:35.025Z,94857.81
2018-03-30T18:01:01.402Z,94856.28
2018-03-30T18:03:27.877Z,94854.14
2018-03-30T18:05:54.242Z,94855.32
2018-03-30T18:08:20.575Z,94858.25
2018-03-30T18:10:46.974Z,94856.20
2018-03-30T18:13:13.364Z,94854.55
2018-03-30T18:15:39.725Z,94862.66
2018-03-30T18:18:06.071Z,94865.13
2018-03-30T18:20:32.390Z,94858.98
2018-03-30T18:22:58.804Z,94862.92
2018-03-30T18:25:25.260Z,94866.59
2018-03-30T18:27:51.649Z,94876.33
2018-03-30T18:30:18.000Z,94880.23
2018-03-30T18:32:44.348Z,94884.41
2018-03-30T18:35:10.930Z,94882.00
2018-03-30T18:37:37.316Z,94886.07
2018-03-30T18:40:03.677Z,94873.28
2018-03-30T18:42:30.045Z,94890.41
2018-03-30T18:44:56.446Z,94884.58
2018-03-30T18:47:22.777Z,94904.09
2018-03-30T18:49:49.193Z,94914.56
2018-03-30T18:52:15.714Z,94915.56
2018-03-30T18:54:42.090Z,94920.95
2018-03-30T18:57:08.422Z,94924.24
2018-03-30T18:59:34.799Z,94925.48
2018-03-30T19:02:01.179Z,94924.45
2018-03-30T19:04:27.817Z,94928.23
2018-03-30T19:06:54.213Z,94933.39
2018-03-30T19:09:20.582Z,94940.20
2018-03-30T19:11:46.920Z,94917.55
2018-03-30T19:14:13.366Z,94930.55
2018-03-30T19:16:39.735Z,94930.77
2018-03-30T19:19:06.192Z,94926.43
2018-03-30T19:21:32.574Z,94939.28
2018-03-30T19:23:58.884Z,94942.91
2018-03-30T19:26:25.465Z,94933.65
2018-03-30T19:28:51.789Z,94942.39
2018-03-30T19:31:18.167Z,94951.62
2018-03-30T19:33:44.498Z,94946.50
2018-03-30T19:36:10.853Z,94947.38
2018-03-30T19:38:37.266Z,94953.53
2018-03-30T19:41:03.633Z,94944.77
2018-03-30T19:43:29.971Z,94935.41
2018-03-30T19:45:56.508Z,94953.95
2018-03-30T19:48:22.968Z,94954.98
2018-03-30T19:50:49.318Z,94932.58
2018-03-30T19:53:15.640Z,94941.63
2018-03-30T19:55:42.091Z,94951.16
2018-03-30T19:58:08.440Z,94958.30
2018-03-30T20:00:34.871Z,94945.53
2018-03-30T20:03:01.196Z,94938.05
2018-03-30T20:05:27.576Z,94950.81
2018-03-30T20:07:53.923Z,94941.63
2018-03-30T20:10:20.258Z,94955.60
2018-03-30T20:12:46.629Z,94970.41
2018-03-30T20:15:13.005Z,94965.77
2018-03-30T20:17:39.459Z,94948.58
2018-03-30T20:20:05.790Z,94955.66
2018-03-30T20:22:32.165Z,94968.16
2018-03-30T20:24:58.658Z,94960.86
2018-03-30T20:27:25.077Z,94957.03
2018-03-30T20:29:51.417Z,94971.64
2018-03-30T20:32:17.750Z,94976.55
2018-03-30T20:34:44.187Z,94964.69
2018-03-30T20:37:10.553Z,94968.59
2018-03-30T20:39:37.063Z,94958.91
2018-03-30T20:42:03.429Z,94953.06
2018-03-30T20:44:29.817Z,94958.28
2018-03-30T20:46:56.170Z,94955.74
2018-03-30T20:49:22.512Z,94970.91
2018-03-30T20:51:48.851Z,94968.08
2018-03-30T20:54:15.317Z,94957.21
2018-03-30T20:56:41.920Z,94965.09
2018-03-30T20:59:08.307Z,94976.56
2018-03-30T21:01:34.655Z,94964.01
2018-03-30T21:04:01.016Z,94958.89
2018-03-30T21:06:27.498Z,94965.66
2018-03-30T21:08:53.825Z,94981.86
2018-03-30T21:11:20.147Z,94972.81
2018-03-30T21:13:46.579Z,94962.08
2018-03-30T21:16:12.992Z,94969.70
2018-03-30T21:18:39.438Z,94969.34
2018-03-30T21:21:05.764Z,94977.92
2018-03-30T21:23:32.127Z,94971.41
2018-03-30T21:25:58.474Z,94957.11
2018-03-30T21:28:24.971Z,94967.21
2018-03-30T21:30:51.303Z,94960.03
2018-03-30T21:33:17.633Z,94969.14
2018-03-30T21:35:44.124Z,94958.94
2018-03-30T21:38:10.563Z,94966.37
2018-03-30T21:40:37.112Z,94970.62
2018-03-30T21:43:03.492Z,94979.72
2018-03-30T21:45:29.832Z,94975.66
2018-03-30T21:47:56.249Z,94972.78
2018-03-30T21:50:22.811Z,94984.58
2018-03-30T21:52:49.203Z,94974.38
2018-03-30T21:55:15.546Z,94988.05
2018-03-30T21:57:41.929Z,94961.10
2018-03-30T22:00:08.588Z,94992.95
2018-03-30T22:02:34.938Z,94977.57
2018-03-30T22:05:01.282Z,94973.73
2018-03-30T22:07:27.944Z,94971.83
2018-03-30T22:09:54.387Z,94971.37
2018-03-30T22:12:20.746Z,94989.87
2018-03-30T22:14:47.076Z,94963.06
2018-03-30T22:17:13.422Z,94976.70
2018-03-30T22:19:39.889Z,94976.34
2018-03-30T22:22:06.260Z,94968.34
2018-03-30T22:24:32.574Z,94976.42
2018-03-30T22:26:59.009Z,94981.98
2018-03-30T22:29:25.410Z,94989.48
2018-03-30T22:31:51.719Z,94983.17
2018-03-30T22:34:18.026Z,94978.36
2018-03-30T22:36:44.449Z,94993.89
2018-03-30T22:39:10.886Z,94975.43
2018-03-30T22:41:37.319Z,94978.08
2018-03-30T22:44:03.700Z,94974.33
2018-03-30T22:46:30.061Z,94968.56
2018-03-30T22:48:56.407Z,94958.12
2018-03-30T22:51:22.801Z,94974.70
2018-03-30T22:53:49.182Z,94973.13
2018-03-30T22:56:15.683Z,94959.38
2018-03-30T22:58:42.048Z,94968.39
2018-03-30T23:01:08.560Z,94967.16
2018-03-30T23:03:34.949Z,94962.83
2018-03-30T23:06:01.265Z,94972.06
2018-03-30T23:08:27.811Z,94964.11
2018-03-30T23:10:54.238Z,94967.98
2018-03-30T23:13:20.610Z,94965.47
2018-03-30T23:15:46.977Z,94963.36
2018-03-30T23:18:13.342Z,94966.34
2018-03-30T23:20:39.772Z,94960.84
2018-03-30T23:23:06.131Z,94966.67
2018-03-30T23:25:32.611Z,94957.39
2018-03-30T23:27:59.163Z,94961.84
2018-03-30T23:30:25.600Z,94965.11
2018-03-30T23:35:23.414Z,94949.67
2018-03-30T23:37:49.846Z,94936.73
2018-03-30T23:40:16.217Z,94942.34
2018-03-30T23:42:42.600Z,94948.08
2018-03-30T23:45:09.123Z,94955.29
2018-03-30T23:47:35.501Z,94949.91
2018-03-30T23:50:02.008Z,94950.70
2018-03-30T23:52:28.543Z,94950.02
2018-03-30T23:54:55.069Z,94945.92
2018-03-30T23:57:21.470Z,94946.98
2018-03-30T23:59:47.899Z,94948.91
